Cleveland, OH (44128)

2:37 AM EDT on August 30, 2015 (GMT -0400)
Tri-C East Campus | | Change Station
CLOSE
Current Station
Personal Weather Station
Location: Highland Hills, OH
Elevation: 1227 ft
Nearby Weather Stations

Elev 1227 ft 41.45 °N, 81.50 °W | Updated 3 minutes ago

Rain
Rain
66.7 °F
Feels Like 66.7 °F
N
0.0
Wind Variable Wind from NW
Gusts 4.0 mph

Today
High -- | Low -- °F
--% Chance of Precip.
Yesterday
High -- | Low -- °F
Precip. -- in
6:50 AM 8:02 PM
Full, 100% visible
Pressure 30.05 in
Visibility 8.0 miles
Clouds Few 6000 ft
Overcast 7500 ft
Dew Point 65 °F
Humidity 94%
Rainfall 0.28 in
Snow Depth Not available.
UV 0 out of 12
Pollen 9.40 out of 12
Air Quality Not available.
Flu Activity Not available.
SPECI KBKL 300608Z 17006KT 8SM FEW060 OVC075 21/19 A3005 RMK AO2 LTG DSNT NW-NE P0001 T02110189
Pressure 30.05 in
Visibility 8.0 miles
Clouds Few 6000 ft
Overcast 7500 ft
Dew Point 65 °F
Humidity 94%
Rainfall 0.28 in
Snow Depth Not available.
UV 0 out of 12
Pollen 9.40 out of 12
Air Quality Not available.
Flu Activity Not available.
SPECI KBKL 300608Z 17006KT 8SM FEW060 OVC075 21/19 A3005 RMK AO2 LTG DSNT NW-NE P0001 T02110189

10-Day Weather Forecast

×

Almanac

Astronomy

Aug. 30, 2015 Rise Set
Actual Time
Civil Twilight
Nautical Twilight
Astronomical Twilight
Moon
Length of Visible Light
Length of Day
Tomorrow will be .
, % of the Moon is Illuminated

Today's Extremes

State Highs State Lows

Community

WunderPhotos

Upload Photos

1,850,904 photos uploaded!

WunderBlogs® & News

Nearby

Air Quality

  Air Quality AQ Index Pollutant
Not available.

Snow Depth

Station Depth Elevation

Earthquake Activity

City Distance Mag. Time & Date
Minimum magnitude displayed is 2.5.

Coastal Water Temperatures

Place Temperature

Stations

Nearby Weather Stations

Station Location Temp. Windchill Dew Point Humidity Wind Precip. Elev Updated Type